sensor_id;sensor_type;location;lat;lon;timestamp;P1;durP1;ratioP1;P2;durP2;ratioP2
12871;SDS011;6504;53.766;9.626;2023-10-08T00:01:02;4.60;;;2.53;;
12871;SDS011;6504;53.766;9.626;2023-10-08T00:03:34;7.17;;;2.80;;
12871;SDS011;6504;53.766;9.626;2023-10-08T00:06:04;6.07;;;2.63;;
12871;SDS011;6504;53.766;9.626;2023-10-08T00:08:39;5.13;;;2.73;;
12871;SDS011;6504;53.766;9.626;2023-10-08T00:11:07;7.87;;;2.70;;
12871;SDS011;6504;53.766;9.626;2023-10-08T00:13:37;6.37;;;2.40;;
12871;SDS011;6504;53.766;9.626;2023-10-08T00:16:08;6.60;;;2.37;;
12871;SDS011;6504;53.766;9.626;2023-10-08T00:18:38;6.50;;;2.33;;
12871;SDS011;6504;53.766;9.626;2023-10-08T00:21:09;6.67;;;2.40;;
12871;SDS011;6504;53.766;9.626;2023-10-08T00:23:46;5.60;;;2.23;;
12871;SDS011;6504;53.766;9.626;2023-10-08T00:26:19;5.57;;;1.80;;
12871;SDS011;6504;53.766;9.626;2023-10-08T00:28:54;6.17;;;2.00;;
12871;SDS011;6504;53.766;9.626;2023-10-08T00:31:23;3.77;;;1.70;;
12871;SDS011;6504;53.766;9.626;2023-10-08T00:33:58;4.77;;;1.90;;
12871;SDS011;6504;53.766;9.626;2023-10-08T00:36:27;6.03;;;1.80;;
12871;SDS011;6504;53.766;9.626;2023-10-08T00:38:56;5.50;;;1.80;;
12871;SDS011;6504;53.766;9.626;2023-10-08T00:41:26;5.63;;;2.10;;
12871;SDS011;6504;53.766;9.626;2023-10-08T00:43:57;6.37;;;1.90;;
12871;SDS011;6504;53.766;9.626;2023-10-08T00:46:27;5.33;;;2.17;;
12871;SDS011;6504;53.766;9.626;2023-10-08T00:49:00;4.37;;;1.87;;
12871;SDS011;6504;53.766;9.626;2023-10-08T00:51:46;6.17;;;2.40;;
12871;SDS011;6504;53.766;9.626;2023-10-08T00:54:14;3.17;;;1.77;;
12871;SDS011;6504;53.766;9.626;2023-10-08T00:56:45;4.60;;;1.67;;
12871;SDS011;6504;53.766;9.626;2023-10-08T00:59:23;5.30;;;1.90;;
12871;SDS011;6504;53.766;9.626;2023-10-08T01:01:52;4.43;;;2.30;;
12871;SDS011;6504;53.766;9.626;2023-10-08T01:04:27;6.60;;;2.20;;
12871;SDS011;6504;53.766;9.626;2023-10-08T01:07:01;3.87;;;1.93;;
12871;SDS011;6504;53.766;9.626;2023-10-08T01:09:40;3.97;;;1.90;;
12871;SDS011;6504;53.766;9.626;2023-10-08T01:12:10;3.47;;;1.70;;
12871;SDS011;6504;53.766;9.626;2023-10-08T01:14:42;3.83;;;1.80;;
12871;SDS011;6504;53.766;9.626;2023-10-08T01:17:11;7.37;;;2.07;;
12871;SDS011;6504;53.766;9.626;2023-10-08T01:19:43;4.67;;;1.83;;
12871;SDS011;6504;53.766;9.626;2023-10-08T01:22:18;5.20;;;2.00;;
12871;SDS011;6504;53.766;9.626;2023-10-08T01:24:48;3.63;;;1.50;;
12871;SDS011;6504;53.766;9.626;2023-10-08T01:27:17;3.27;;;1.43;;
12871;SDS011;6504;53.766;9.626;2023-10-08T01:29:48;3.00;;;1.90;;
12871;SDS011;6504;53.766;9.626;2023-10-08T01:32:18;4.80;;;2.00;;
12871;SDS011;6504;53.766;9.626;2023-10-08T01:34:48;5.23;;;1.87;;
12871;SDS011;6504;53.766;9.626;2023-10-08T01:37:18;4.20;;;1.67;;
12871;SDS011;6504;53.766;9.626;2023-10-08T01:39:48;3.87;;;1.67;;
12871;SDS011;6504;53.766;9.626;2023-10-08T01:42:16;3.83;;;1.57;;
12871;SDS011;6504;53.766;9.626;2023-10-08T01:44:45;4.23;;;1.63;;
12871;SDS011;6504;53.766;9.626;2023-10-08T01:47:15;5.50;;;1.77;;
12871;SDS011;6504;53.766;9.626;2023-10-08T01:49:43;7.50;;;1.97;;
12871;SDS011;6504;53.766;9.626;2023-10-08T01:52:13;5.33;;;1.70;;
12871;SDS011;6504;53.766;9.626;2023-10-08T01:54:48;3.40;;;1.33;;
12871;SDS011;6504;53.766;9.626;2023-10-08T01:57:16;5.13;;;1.80;;
12871;SDS011;6504;53.766;9.626;2023-10-08T01:59:44;4.63;;;1.77;;
12871;SDS011;6504;53.766;9.626;2023-10-08T02:02:12;3.47;;;1.63;;
12871;SDS011;6504;53.766;9.626;2023-10-08T02:04:42;3.23;;;1.53;;
12871;SDS011;6504;53.766;9.626;2023-10-08T02:07:10;2.67;;;1.47;;
12871;SDS011;6504;53.766;9.626;2023-10-08T02:09:39;4.23;;;1.47;;
12871;SDS011;6504;53.766;9.626;2023-10-08T02:12:09;2.80;;;1.53;;
12871;SDS011;6504;53.766;9.626;2023-10-08T02:14:40;2.97;;;1.50;;
12871;SDS011;6504;53.766;9.626;2023-10-08T02:17:10;3.90;;;1.43;;
12871;SDS011;6504;53.766;9.626;2023-10-08T02:19:39;4.00;;;1.37;;
12871;SDS011;6504;53.766;9.626;2023-10-08T02:22:08;5.33;;;1.47;;
12871;SDS011;6504;53.766;9.626;2023-10-08T02:24:36;2.20;;;1.40;;
12871;SDS011;6504;53.766;9.626;2023-10-08T02:27:06;2.73;;;1.23;;
12871;SDS011;6504;53.766;9.626;2023-10-08T02:29:35;3.03;;;1.60;;
12871;SDS011;6504;53.766;9.626;2023-10-08T02:32:03;4.30;;;1.67;;
12871;SDS011;6504;53.766;9.626;2023-10-08T02:34:32;3.63;;;1.30;;
12871;SDS011;6504;53.766;9.626;2023-10-08T02:37:00;5.63;;;1.83;;
12871;SDS011;6504;53.766;9.626;2023-10-08T02:39:29;4.30;;;1.37;;
12871;SDS011;6504;53.766;9.626;2023-10-08T02:41:58;3.83;;;1.30;;
12871;SDS011;6504;53.766;9.626;2023-10-08T02:44:26;4.63;;;1.60;;
12871;SDS011;6504;53.766;9.626;2023-10-08T02:46:56;3.23;;;1.77;;
12871;SDS011;6504;53.766;9.626;2023-10-08T02:49:24;4.57;;;1.70;;
12871;SDS011;6504;53.766;9.626;2023-10-08T02:51:56;6.13;;;1.30;;
12871;SDS011;6504;53.766;9.626;2023-10-08T02:54:24;2.27;;;1.60;;
12871;SDS011;6504;53.766;9.626;2023-10-08T02:56:59;5.53;;;1.70;;
12871;SDS011;6504;53.766;9.626;2023-10-08T02:59:30;2.83;;;1.50;;
12871;SDS011;6504;53.766;9.626;2023-10-08T03:02:08;3.07;;;1.70;;
12871;SDS011;6504;53.766;9.626;2023-10-08T03:04:46;3.83;;;1.50;;
12871;SDS011;6504;53.766;9.626;2023-10-08T03:07:17;3.93;;;1.63;;
12871;SDS011;6504;53.766;9.626;2023-10-08T03:09:52;4.03;;;1.73;;
12871;SDS011;6504;53.766;9.626;2023-10-08T03:12:30;3.90;;;1.40;;
12871;SDS011;6504;53.766;9.626;2023-10-08T03:14:59;4.03;;;1.40;;
12871;SDS011;6504;53.766;9.626;2023-10-08T03:17:41;4.00;;;1.60;;
12871;SDS011;6504;53.766;9.626;2023-10-08T03:20:17;2.90;;;1.53;;
12871;SDS011;6504;53.766;9.626;2023-10-08T03:23:04;3.57;;;1.20;;
12871;SDS011;6504;53.766;9.626;2023-10-08T03:25:40;3.90;;;1.40;;
12871;SDS011;6504;53.766;9.626;2023-10-08T03:28:09;4.27;;;1.20;;
12871;SDS011;6504;53.766;9.626;2023-10-08T03:30:39;3.60;;;1.50;;
12871;SDS011;6504;53.766;9.626;2023-10-08T03:33:17;5.07;;;1.37;;
12871;SDS011;6504;53.766;9.626;2023-10-08T03:35:50;3.23;;;1.50;;
12871;SDS011;6504;53.766;9.626;2023-10-08T03:38:21;3.10;;;1.30;;
12871;SDS011;6504;53.766;9.626;2023-10-08T03:40:57;3.10;;;1.07;;
12871;SDS011;6504;53.766;9.626;2023-10-08T03:43:32;3.07;;;1.10;;
12871;SDS011;6504;53.766;9.626;2023-10-08T03:46:19;3.53;;;1.47;;
12871;SDS011;6504;53.766;9.626;2023-10-08T03:48:51;3.97;;;1.43;;
12871;SDS011;6504;53.766;9.626;2023-10-08T03:51:23;3.50;;;1.20;;
12871;SDS011;6504;53.766;9.626;2023-10-08T03:53:54;2.13;;;1.20;;
12871;SDS011;6504;53.766;9.626;2023-10-08T03:56:25;3.47;;;1.33;;
12871;SDS011;6504;53.766;9.626;2023-10-08T03:58:56;3.07;;;1.60;;
12871;SDS011;6504;53.766;9.626;2023-10-08T04:01:27;2.40;;;1.37;;
12871;SDS011;6504;53.766;9.626;2023-10-08T04:04:00;3.57;;;1.23;;
12871;SDS011;6504;53.766;9.626;2023-10-08T04:06:29;2.67;;;1.43;;
12871;SDS011;6504;53.766;9.626;2023-10-08T04:09:04;2.90;;;1.13;;
12871;SDS011;6504;53.766;9.626;2023-10-08T04:11:43;2.30;;;1.40;;
12871;SDS011;6504;53.766;9.626;2023-10-08T04:14:20;3.30;;;1.20;;
12871;SDS011;6504;53.766;9.626;2023-10-08T04:16:50;1.97;;;1.10;;
12871;SDS011;6504;53.766;9.626;2023-10-08T04:19:20;2.33;;;1.13;;
12871;SDS011;6504;53.766;9.626;2023-10-08T04:21:53;3.07;;;0.87;;
12871;SDS011;6504;53.766;9.626;2023-10-08T04:24:22;2.83;;;1.20;;
12871;SDS011;6504;53.766;9.626;2023-10-08T04:27:01;2.40;;;1.20;;
12871;SDS011;6504;53.766;9.626;2023-10-08T04:29:35;2.53;;;1.30;;
12871;SDS011;6504;53.766;9.626;2023-10-08T04:32:04;5.70;;;1.53;;
12871;SDS011;6504;53.766;9.626;2023-10-08T04:34:37;5.30;;;1.30;;
12871;SDS011;6504;53.766;9.626;2023-10-08T04:37:10;12.50;;;2.43;;
12871;SDS011;6504;53.766;9.626;2023-10-08T04:39:39;3.80;;;1.40;;
12871;SDS011;6504;53.766;9.626;2023-10-08T04:42:14;4.27;;;1.40;;
12871;SDS011;6504;53.766;9.626;2023-10-08T04:44:52;4.27;;;1.40;;
12871;SDS011;6504;53.766;9.626;2023-10-08T04:47:21;2.53;;;1.20;;
12871;SDS011;6504;53.766;9.626;2023-10-08T04:50:00;1.50;;;1.10;;
12871;SDS011;6504;53.766;9.626;2023-10-08T04:52:32;1.70;;;1.00;;
12871;SDS011;6504;53.766;9.626;2023-10-08T04:55:12;3.10;;;1.00;;
12871;SDS011;6504;53.766;9.626;2023-10-08T04:57:46;5.40;;;1.40;;
12871;SDS011;6504;53.766;9.626;2023-10-08T05:00:15;2.50;;;1.20;;
12871;SDS011;6504;53.766;9.626;2023-10-08T05:03:04;2.30;;;1.20;;
12871;SDS011;6504;53.766;9.626;2023-10-08T05:05:42;2.83;;;1.40;;
12871;SDS011;6504;53.766;9.626;2023-10-08T05:08:33;1.57;;;1.40;;
12871;SDS011;6504;53.766;9.626;2023-10-08T05:11:15;3.73;;;1.37;;
12871;SDS011;6504;53.766;9.626;2023-10-08T05:13:51;3.43;;;1.40;;
12871;SDS011;6504;53.766;9.626;2023-10-08T05:16:32;3.23;;;1.30;;
12871;SDS011;6504;53.766;9.626;2023-10-08T05:19:10;2.90;;;1.00;;
12871;SDS011;6504;53.766;9.626;2023-10-08T05:22:15;2.77;;;1.20;;
12871;SDS011;6504;53.766;9.626;2023-10-08T05:25:10;3.23;;;1.70;;
12871;SDS011;6504;53.766;9.626;2023-10-08T05:27:52;3.10;;;1.50;;
12871;SDS011;6504;53.766;9.626;2023-10-08T05:30:24;2.47;;;1.37;;
12871;SDS011;6504;53.766;9.626;2023-10-08T05:32:55;3.40;;;1.80;;
12871;SDS011;6504;53.766;9.626;2023-10-08T05:35:51;4.07;;;1.50;;
12871;SDS011;6504;53.766;9.626;2023-10-08T05:38:30;3.23;;;1.40;;
12871;SDS011;6504;53.766;9.626;2023-10-08T05:41:26;2.83;;;1.30;;
12871;SDS011;6504;53.766;9.626;2023-10-08T05:44:05;2.03;;;1.40;;
12871;SDS011;6504;53.766;9.626;2023-10-08T05:46:50;2.53;;;1.37;;
12871;SDS011;6504;53.766;9.626;2023-10-08T05:49:33;3.27;;;1.53;;
12871;SDS011;6504;53.766;9.626;2023-10-08T05:52:20;2.37;;;1.50;;
12871;SDS011;6504;53.766;9.626;2023-10-08T05:55:09;3.33;;;1.40;;
12871;SDS011;6504;53.766;9.626;2023-10-08T05:57:52;2.47;;;1.50;;
12871;SDS011;6504;53.766;9.626;2023-10-08T06:00:29;3.10;;;1.30;;
12871;SDS011;6504;53.766;9.626;2023-10-08T06:03:13;2.27;;;1.10;;
12871;SDS011;6504;53.766;9.626;2023-10-08T06:05:55;2.73;;;1.40;;
12871;SDS011;6504;53.766;9.626;2023-10-08T06:08:48;2.33;;;1.40;;
12871;SDS011;6504;53.766;9.626;2023-10-08T06:11:20;1.77;;;1.13;;
12871;SDS011;6504;53.766;9.626;2023-10-08T06:14:11;2.30;;;1.30;;
12871;SDS011;6504;53.766;9.626;2023-10-08T06:16:43;3.43;;;1.27;;
12871;SDS011;6504;53.766;9.626;2023-10-08T06:19:13;2.57;;;1.57;;
12871;SDS011;6504;53.766;9.626;2023-10-08T06:21:41;2.03;;;1.33;;
12871;SDS011;6504;53.766;9.626;2023-10-08T06:24:11;1.10;;;1.00;;
12871;SDS011;6504;53.766;9.626;2023-10-08T06:26:45;2.63;;;1.20;;
12871;SDS011;6504;53.766;9.626;2023-10-08T06:29:15;1.97;;;1.00;;
12871;SDS011;6504;53.766;9.626;2023-10-08T06:31:53;2.67;;;1.07;;
12871;SDS011;6504;53.766;9.626;2023-10-08T06:34:23;1.63;;;1.10;;
12871;SDS011;6504;53.766;9.626;2023-10-08T06:36:55;1.50;;;1.00;;
12871;SDS011;6504;53.766;9.626;2023-10-08T06:39:24;3.00;;;1.37;;
12871;SDS011;6504;53.766;9.626;2023-10-08T06:42:01;4.37;;;1.40;;
12871;SDS011;6504;53.766;9.626;2023-10-08T06:44:29;2.43;;;1.37;;
12871;SDS011;6504;53.766;9.626;2023-10-08T06:46:57;1.53;;;1.10;;
12871;SDS011;6504;53.766;9.626;2023-10-08T06:49:25;1.40;;;1.10;;
12871;SDS011;6504;53.766;9.626;2023-10-08T06:51:53;3.37;;;1.53;;
12871;SDS011;6504;53.766;9.626;2023-10-08T06:54:21;3.57;;;1.53;;
12871;SDS011;6504;53.766;9.626;2023-10-08T06:56:49;2.07;;;1.70;;
12871;SDS011;6504;53.766;9.626;2023-10-08T06:59:20;2.43;;;1.90;;
12871;SDS011;6504;53.766;9.626;2023-10-08T07:01:51;3.43;;;2.00;;
12871;SDS011;6504;53.766;9.626;2023-10-08T07:04:19;4.97;;;1.60;;
12871;SDS011;6504;53.766;9.626;2023-10-08T07:06:49;2.30;;;1.73;;
12871;SDS011;6504;53.766;9.626;2023-10-08T07:09:18;3.10;;;1.83;;
12871;SDS011;6504;53.766;9.626;2023-10-08T07:11:57;3.30;;;1.80;;
12871;SDS011;6504;53.766;9.626;2023-10-08T07:14:33;2.10;;;1.57;;
12871;SDS011;6504;53.766;9.626;2023-10-08T07:17:01;2.27;;;1.80;;
12871;SDS011;6504;53.766;9.626;2023-10-08T07:19:34;2.00;;;1.80;;
12871;SDS011;6504;53.766;9.626;2023-10-08T07:22:05;3.50;;;1.80;;
12871;SDS011;6504;53.766;9.626;2023-10-08T07:24:45;3.93;;;1.60;;
12871;SDS011;6504;53.766;9.626;2023-10-08T07:27:17;3.03;;;1.50;;
12871;SDS011;6504;53.766;9.626;2023-10-08T07:29:49;5.67;;;1.90;;
12871;SDS011;6504;53.766;9.626;2023-10-08T07:32:22;2.70;;;1.70;;
12871;SDS011;6504;53.766;9.626;2023-10-08T07:34:52;3.57;;;1.63;;
12871;SDS011;6504;53.766;9.626;2023-10-08T07:37:24;2.93;;;1.50;;
12871;SDS011;6504;53.766;9.626;2023-10-08T07:39:53;3.57;;;1.50;;
12871;SDS011;6504;53.766;9.626;2023-10-08T07:42:21;3.10;;;1.40;;
12871;SDS011;6504;53.766;9.626;2023-10-08T07:44:51;2.67;;;1.47;;
12871;SDS011;6504;53.766;9.626;2023-10-08T07:47:21;4.07;;;1.43;;
12871;SDS011;6504;53.766;9.626;2023-10-08T07:49:49;2.63;;;1.50;;
12871;SDS011;6504;53.766;9.626;2023-10-08T07:52:18;4.57;;;1.37;;
12871;SDS011;6504;53.766;9.626;2023-10-08T07:54:47;2.73;;;1.33;;
12871;SDS011;6504;53.766;9.626;2023-10-08T07:57:15;4.97;;;1.40;;
12871;SDS011;6504;53.766;9.626;2023-10-08T07:59:53;6.43;;;1.60;;
12871;SDS011;6504;53.766;9.626;2023-10-08T08:02:28;5.13;;;1.50;;
12871;SDS011;6504;53.766;9.626;2023-10-08T08:04:57;8.87;;;1.83;;
12871;SDS011;6504;53.766;9.626;2023-10-08T08:07:25;3.60;;;1.50;;
12871;SDS011;6504;53.766;9.626;2023-10-08T08:09:53;5.23;;;1.70;;
12871;SDS011;6504;53.766;9.626;2023-10-08T08:12:26;5.23;;;1.60;;
12871;SDS011;6504;53.766;9.626;2023-10-08T08:15:00;6.20;;;1.50;;
12871;SDS011;6504;53.766;9.626;2023-10-08T08:17:41;5.13;;;1.40;;
12871;SDS011;6504;53.766;9.626;2023-10-08T08:20:09;5.43;;;1.80;;
12871;SDS011;6504;53.766;9.626;2023-10-08T08:22:44;3.57;;;1.30;;
12871;SDS011;6504;53.766;9.626;2023-10-08T08:25:16;4.83;;;1.60;;
12871;SDS011;6504;53.766;9.626;2023-10-08T08:27:53;3.33;;;1.50;;
12871;SDS011;6504;53.766;9.626;2023-10-08T08:30:23;4.10;;;1.83;;
12871;SDS011;6504;53.766;9.626;2023-10-08T08:32:53;4.23;;;1.50;;
12871;SDS011;6504;53.766;9.626;2023-10-08T08:35:22;3.43;;;1.70;;
12871;SDS011;6504;53.766;9.626;2023-10-08T08:37:51;3.23;;;1.50;;
12871;SDS011;6504;53.766;9.626;2023-10-08T08:40:19;1.90;;;1.20;;
12871;SDS011;6504;53.766;9.626;2023-10-08T08:42:49;4.97;;;1.63;;
12871;SDS011;6504;53.766;9.626;2023-10-08T08:45:19;4.73;;;1.70;;
12871;SDS011;6504;53.766;9.626;2023-10-08T08:47:49;5.13;;;1.80;;
12871;SDS011;6504;53.766;9.626;2023-10-08T08:50:19;4.67;;;1.40;;
12871;SDS011;6504;53.766;9.626;2023-10-08T08:52:49;6.03;;;1.50;;
12871;SDS011;6504;53.766;9.626;2023-10-08T08:55:18;5.10;;;1.80;;
12871;SDS011;6504;53.766;9.626;2023-10-08T08:57:47;4.20;;;1.80;;
12871;SDS011;6504;53.766;9.626;2023-10-08T09:00:18;3.57;;;1.43;;
12871;SDS011;6504;53.766;9.626;2023-10-08T09:02:48;3.83;;;1.40;;
12871;SDS011;6504;53.766;9.626;2023-10-08T09:05:18;3.03;;;1.13;;
12871;SDS011;6504;53.766;9.626;2023-10-08T09:07:55;4.13;;;1.30;;
12871;SDS011;6504;53.766;9.626;2023-10-08T09:10:25;5.30;;;1.70;;
12871;SDS011;6504;53.766;9.626;2023-10-08T09:12:55;3.60;;;1.63;;
12871;SDS011;6504;53.766;9.626;2023-10-08T09:15:25;3.60;;;1.20;;
12871;SDS011;6504;53.766;9.626;2023-10-08T09:17:55;4.80;;;1.23;;
12871;SDS011;6504;53.766;9.626;2023-10-08T09:20:27;3.67;;;1.50;;
12871;SDS011;6504;53.766;9.626;2023-10-08T09:23:07;5.07;;;1.53;;
12871;SDS011;6504;53.766;9.626;2023-10-08T09:25:38;4.83;;;1.43;;
12871;SDS011;6504;53.766;9.626;2023-10-08T09:28:06;1.90;;;1.30;;
12871;SDS011;6504;53.766;9.626;2023-10-08T09:30:34;3.23;;;1.30;;
12871;SDS011;6504;53.766;9.626;2023-10-08T09:33:06;1.67;;;1.20;;
12871;SDS011;6504;53.766;9.626;2023-10-08T09:35:36;2.93;;;1.33;;
12871;SDS011;6504;53.766;9.626;2023-10-08T09:38:05;2.03;;;1.00;;
12871;SDS011;6504;53.766;9.626;2023-10-08T09:40:36;5.43;;;1.30;;
12871;SDS011;6504;53.766;9.626;2023-10-08T09:43:04;3.07;;;1.40;;
12871;SDS011;6504;53.766;9.626;2023-10-08T09:45:35;2.23;;;1.00;;
12871;SDS011;6504;53.766;9.626;2023-10-08T09:48:08;3.10;;;1.27;;
12871;SDS011;6504;53.766;9.626;2023-10-08T09:50:40;2.60;;;1.20;;
12871;SDS011;6504;53.766;9.626;2023-10-08T09:53:09;3.43;;;1.10;;
12871;SDS011;6504;53.766;9.626;2023-10-08T09:55:44;1.83;;;1.00;;
12871;SDS011;6504;53.766;9.626;2023-10-08T09:58:16;3.80;;;1.40;;
12871;SDS011;6504;53.766;9.626;2023-10-08T10:00:44;2.37;;;1.10;;
12871;SDS011;6504;53.766;9.626;2023-10-08T10:03:16;3.83;;;1.20;;
12871;SDS011;6504;53.766;9.626;2023-10-08T10:05:48;3.73;;;1.40;;
12871;SDS011;6504;53.766;9.626;2023-10-08T10:08:16;2.30;;;1.33;;
12871;SDS011;6504;53.766;9.626;2023-10-08T10:10:46;4.27;;;1.40;;
12871;SDS011;6504;53.766;9.626;2023-10-08T10:13:16;2.17;;;1.13;;
12871;SDS011;6504;53.766;9.626;2023-10-08T10:15:44;1.60;;;1.37;;
12871;SDS011;6504;53.766;9.626;2023-10-08T10:18:15;3.97;;;1.43;;
12871;SDS011;6504;53.766;9.626;2023-10-08T10:20:57;4.67;;;1.33;;
12871;SDS011;6504;53.766;9.626;2023-10-08T10:23:39;3.03;;;1.20;;
12871;SDS011;6504;53.766;9.626;2023-10-08T10:26:22;2.00;;;1.20;;
12871;SDS011;6504;53.766;9.626;2023-10-08T10:31:46;2.40;;;0.90;;
12871;SDS011;6504;53.766;9.626;2023-10-08T10:34:17;2.90;;;1.10;;
12871;SDS011;6504;53.766;9.626;2023-10-08T10:36:48;5.47;;;1.10;;
12871;SDS011;6504;53.766;9.626;2023-10-08T10:39:22;2.07;;;1.13;;
12871;SDS011;6504;53.766;9.626;2023-10-08T10:41:54;3.97;;;1.20;;
12871;SDS011;6504;53.766;9.626;2023-10-08T10:44:23;2.17;;;1.00;;
12871;SDS011;6504;53.766;9.626;2023-10-08T10:46:52;2.93;;;1.23;;
12871;SDS011;6504;53.766;9.626;2023-10-08T10:49:41;2.90;;;1.20;;
12871;SDS011;6504;53.766;9.626;2023-10-08T10:52:19;2.23;;;1.20;;
12871;SDS011;6504;53.766;9.626;2023-10-08T10:55:00;2.40;;;1.30;;
12871;SDS011;6504;53.766;9.626;2023-10-08T10:57:44;2.57;;;1.30;;
12871;SDS011;6504;53.766;9.626;2023-10-08T11:00:22;2.50;;;1.10;;
12871;SDS011;6504;53.766;9.626;2023-10-08T11:03:09;2.33;;;1.10;;
12871;SDS011;6504;53.766;9.626;2023-10-08T11:05:44;1.93;;;1.20;;
12871;SDS011;6504;53.766;9.626;2023-10-08T11:08:18;4.00;;;1.53;;
12871;SDS011;6504;53.766;9.626;2023-10-08T11:10:49;1.90;;;1.17;;
12871;SDS011;6504;53.766;9.626;2023-10-08T11:13:20;3.83;;;1.20;;
12871;SDS011;6504;53.766;9.626;2023-10-08T11:15:50;2.47;;;1.03;;
12871;SDS011;6504;53.766;9.626;2023-10-08T11:18:19;3.83;;;1.10;;
12871;SDS011;6504;53.766;9.626;2023-10-08T11:20:50;3.10;;;1.13;;
12871;SDS011;6504;53.766;9.626;2023-10-08T11:23:30;1.40;;;1.30;;
12871;SDS011;6504;53.766;9.626;2023-10-08T11:26:00;2.87;;;1.17;;
12871;SDS011;6504;53.766;9.626;2023-10-08T11:28:31;2.30;;;1.20;;
12871;SDS011;6504;53.766;9.626;2023-10-08T11:31:01;1.80;;;1.00;;
12871;SDS011;6504;53.766;9.626;2023-10-08T11:33:35;1.53;;;0.80;;
12871;SDS011;6504;53.766;9.626;2023-10-08T11:36:07;1.33;;;1.00;;
12871;SDS011;6504;53.766;9.626;2023-10-08T11:38:45;4.07;;;1.27;;
12871;SDS011;6504;53.766;9.626;2023-10-08T11:41:17;3.13;;;1.13;;
12871;SDS011;6504;53.766;9.626;2023-10-08T11:43:48;3.40;;;1.00;;
12871;SDS011;6504;53.766;9.626;2023-10-08T11:46:21;1.70;;;0.90;;
12871;SDS011;6504;53.766;9.626;2023-10-08T11:48:52;3.37;;;1.20;;
12871;SDS011;6504;53.766;9.626;2023-10-08T11:51:25;2.43;;;1.20;;
12871;SDS011;6504;53.766;9.626;2023-10-08T11:53:55;2.57;;;1.10;;
12871;SDS011;6504;53.766;9.626;2023-10-08T11:56:23;4.90;;;1.23;;
12871;SDS011;6504;53.766;9.626;2023-10-08T11:58:52;2.60;;;1.10;;
12871;SDS011;6504;53.766;9.626;2023-10-08T12:01:23;1.10;;;0.90;;
12871;SDS011;6504;53.766;9.626;2023-10-08T12:03:53;2.20;;;1.13;;
12871;SDS011;6504;53.766;9.626;2023-10-08T12:06:27;1.70;;;1.13;;
12871;SDS011;6504;53.766;9.626;2023-10-08T12:08:57;2.80;;;1.20;;
12871;SDS011;6504;53.766;9.626;2023-10-08T12:11:25;3.27;;;1.20;;
12871;SDS011;6504;53.766;9.626;2023-10-08T12:13:57;3.70;;;1.07;;
12871;SDS011;6504;53.766;9.626;2023-10-08T12:16:26;2.83;;;1.20;;
12871;SDS011;6504;53.766;9.626;2023-10-08T12:18:56;1.90;;;0.97;;
12871;SDS011;6504;53.766;9.626;2023-10-08T12:21:27;3.30;;;1.13;;
12871;SDS011;6504;53.766;9.626;2023-10-08T12:23:56;3.10;;;1.10;;
12871;SDS011;6504;53.766;9.626;2023-10-08T12:26:25;4.13;;;1.13;;
12871;SDS011;6504;53.766;9.626;2023-10-08T12:28:53;1.93;;;1.30;;
12871;SDS011;6504;53.766;9.626;2023-10-08T12:31:21;1.50;;;1.20;;
12871;SDS011;6504;53.766;9.626;2023-10-08T12:33:50;2.43;;;0.90;;
12871;SDS011;6504;53.766;9.626;2023-10-08T12:36:20;1.50;;;1.00;;
12871;SDS011;6504;53.766;9.626;2023-10-08T12:38:51;2.77;;;1.30;;
12871;SDS011;6504;53.766;9.626;2023-10-08T12:41:24;2.10;;;1.57;;
12871;SDS011;6504;53.766;9.626;2023-10-08T12:43:53;1.67;;;1.10;;
12871;SDS011;6504;53.766;9.626;2023-10-08T12:46:21;3.13;;;1.40;;
12871;SDS011;6504;53.766;9.626;2023-10-08T12:48:52;2.67;;;1.10;;
12871;SDS011;6504;53.766;9.626;2023-10-08T12:51:22;1.77;;;1.10;;
12871;SDS011;6504;53.766;9.626;2023-10-08T12:53:53;2.47;;;1.00;;
12871;SDS011;6504;53.766;9.626;2023-10-08T12:56:30;2.63;;;1.27;;
12871;SDS011;6504;53.766;9.626;2023-10-08T12:59:11;2.57;;;1.00;;
12871;SDS011;6504;53.766;9.626;2023-10-08T13:01:47;2.23;;;1.03;;
12871;SDS011;6504;53.766;9.626;2023-10-08T13:04:18;3.63;;;1.00;;
12871;SDS011;6504;53.766;9.626;2023-10-08T13:06:54;1.97;;;1.30;;
12871;SDS011;6504;53.766;9.626;2023-10-08T13:09:25;3.33;;;1.70;;
12871;SDS011;6504;53.766;9.626;2023-10-08T13:11:54;2.63;;;1.60;;
12871;SDS011;6504;53.766;9.626;2023-10-08T13:14:25;2.47;;;1.73;;
12871;SDS011;6504;53.766;9.626;2023-10-08T13:16:53;6.00;;;4.20;;
12871;SDS011;6504;53.766;9.626;2023-10-08T13:19:22;4.63;;;3.60;;
12871;SDS011;6504;53.766;9.626;2023-10-08T13:21:52;7.33;;;5.60;;
12871;SDS011;6504;53.766;9.626;2023-10-08T13:24:20;11.77;;;10.70;;
12871;SDS011;6504;53.766;9.626;2023-10-08T13:26:52;8.60;;;7.80;;
12871;SDS011;6504;53.766;9.626;2023-10-08T13:29:20;4.60;;;3.70;;
12871;SDS011;6504;53.766;9.626;2023-10-08T13:31:48;4.17;;;2.80;;
12871;SDS011;6504;53.766;9.626;2023-10-08T13:34:16;4.20;;;3.10;;
12871;SDS011;6504;53.766;9.626;2023-10-08T13:36:45;2.87;;;1.70;;
12871;SDS011;6504;53.766;9.626;2023-10-08T13:39:15;5.40;;;1.60;;
12871;SDS011;6504;53.766;9.626;2023-10-08T13:41:45;2.53;;;1.03;;
12871;SDS011;6504;53.766;9.626;2023-10-08T13:44:16;2.50;;;1.67;;
12871;SDS011;6504;53.766;9.626;2023-10-08T13:46:45;2.93;;;1.20;;
12871;SDS011;6504;53.766;9.626;2023-10-08T13:49:16;2.23;;;1.30;;
12871;SDS011;6504;53.766;9.626;2023-10-08T13:51:45;2.17;;;1.50;;
12871;SDS011;6504;53.766;9.626;2023-10-08T13:54:23;1.63;;;1.10;;
12871;SDS011;6504;53.766;9.626;2023-10-08T13:56:55;3.23;;;1.07;;
12871;SDS011;6504;53.766;9.626;2023-10-08T13:59:27;2.67;;;1.00;;
12871;SDS011;6504;53.766;9.626;2023-10-08T14:01:58;1.93;;;1.10;;
12871;SDS011;6504;53.766;9.626;2023-10-08T14:04:29;1.47;;;0.90;;
12871;SDS011;6504;53.766;9.626;2023-10-08T14:07:01;2.50;;;1.10;;
12871;SDS011;6504;53.766;9.626;2023-10-08T14:09:30;1.73;;;1.00;;
12871;SDS011;6504;53.766;9.626;2023-10-08T14:12:04;1.40;;;1.20;;
12871;SDS011;6504;53.766;9.626;2023-10-08T14:14:35;1.80;;;0.93;;
12871;SDS011;6504;53.766;9.626;2023-10-08T14:17:07;3.37;;;1.10;;
12871;SDS011;6504;53.766;9.626;2023-10-08T14:19:40;2.43;;;1.27;;
12871;SDS011;6504;53.766;9.626;2023-10-08T14:22:18;2.27;;;1.10;;
12871;SDS011;6504;53.766;9.626;2023-10-08T14:24:49;1.87;;;1.10;;
12871;SDS011;6504;53.766;9.626;2023-10-08T14:27:25;1.27;;;0.80;;
12871;SDS011;6504;53.766;9.626;2023-10-08T14:29:59;1.30;;;1.00;;
12871;SDS011;6504;53.766;9.626;2023-10-08T14:32:31;1.77;;;1.00;;
12871;SDS011;6504;53.766;9.626;2023-10-08T14:35:00;1.80;;;1.03;;
12871;SDS011;6504;53.766;9.626;2023-10-08T14:37:45;1.07;;;0.90;;
12871;SDS011;6504;53.766;9.626;2023-10-08T14:40:31;1.10;;;1.00;;
12871;SDS011;6504;53.766;9.626;2023-10-08T14:43:16;2.20;;;0.90;;
12871;SDS011;6504;53.766;9.626;2023-10-08T14:45:50;2.17;;;1.10;;
12871;SDS011;6504;53.766;9.626;2023-10-08T14:48:19;2.10;;;0.87;;
12871;SDS011;6504;53.766;9.626;2023-10-08T14:50:49;2.13;;;0.90;;
12871;SDS011;6504;53.766;9.626;2023-10-08T14:53:17;1.57;;;1.10;;
12871;SDS011;6504;53.766;9.626;2023-10-08T14:55:45;2.70;;;1.03;;
12871;SDS011;6504;53.766;9.626;2023-10-08T14:58:15;1.67;;;0.90;;
12871;SDS011;6504;53.766;9.626;2023-10-08T15:00:44;1.33;;;1.20;;
12871;SDS011;6504;53.766;9.626;2023-10-08T15:03:14;1.67;;;1.10;;
12871;SDS011;6504;53.766;9.626;2023-10-08T15:05:42;1.67;;;1.10;;
12871;SDS011;6504;53.766;9.626;2023-10-08T15:08:11;1.50;;;1.00;;
12871;SDS011;6504;53.766;9.626;2023-10-08T15:10:40;2.23;;;1.20;;
12871;SDS011;6504;53.766;9.626;2023-10-08T15:13:09;2.20;;;1.30;;
12871;SDS011;6504;53.766;9.626;2023-10-08T15:15:37;2.67;;;1.30;;
12871;SDS011;6504;53.766;9.626;2023-10-08T15:18:07;1.70;;;0.90;;
12871;SDS011;6504;53.766;9.626;2023-10-08T15:20:40;1.57;;;1.10;;
12871;SDS011;6504;53.766;9.626;2023-10-08T15:23:10;2.80;;;1.20;;
12871;SDS011;6504;53.766;9.626;2023-10-08T15:25:39;1.23;;;1.07;;
12871;SDS011;6504;53.766;9.626;2023-10-08T15:28:08;2.17;;;1.10;;
12871;SDS011;6504;53.766;9.626;2023-10-08T15:30:36;1.83;;;1.20;;
12871;SDS011;6504;53.766;9.626;2023-10-08T15:33:04;1.63;;;1.10;;
12871;SDS011;6504;53.766;9.626;2023-10-08T15:35:33;2.00;;;1.03;;